sensor_id;sensor_type;location;lat;lon;timestamp;pressure;altitude;pressure_sealevel;temperature;humidity
17072;BME280;7731;50.720;6.912;2023-01-30T00:01:56;100493.19;;;2.64;100.00
17072;BME280;7731;50.720;6.912;2023-01-30T00:04:26;100485.56;;;2.67;100.00
17072;BME280;7731;50.720;6.912;2023-01-30T00:06:57;100492.88;;;2.92;100.00
17072;BME280;7731;50.720;6.912;2023-01-30T00:09:29;100487.81;;;2.90;100.00
17072;BME280;7731;50.720;6.912;2023-01-30T00:11:59;100474.25;;;2.93;100.00
17072;BME280;7731;50.720;6.912;2023-01-30T00:14:30;100477.81;;;2.78;100.00
17072;BME280;7731;50.720;6.912;2023-01-30T00:17:00;100479.56;;;2.73;100.00
17072;BME280;7731;50.720;6.912;2023-01-30T00:19:30;100471.09;;;2.77;100.00
17072;BME280;7731;50.720;6.912;2023-01-30T00:22:00;100460.06;;;2.78;100.00
17072;BME280;7731;50.720;6.912;2023-01-30T00:24:33;100450.63;;;2.89;100.00
17072;BME280;7731;50.720;6.912;2023-01-30T00:27:03;100450.63;;;2.89;100.00
17072;BME280;7731;50.720;6.912;2023-01-30T00:29:33;100459.13;;;2.85;100.00
17072;BME280;7731;50.720;6.912;2023-01-30T00:32:04;100431.00;;;3.00;100.00
17072;BME280;7731;50.720;6.912;2023-01-30T00:34:36;100431.59;;;3.21;100.00
17072;BME280;7731;50.720;6.912;2023-01-30T00:37:06;100432.91;;;2.86;100.00
17072;BME280;7731;50.720;6.912;2023-01-30T00:39:39;100414.09;;;2.99;100.00
17072;BME280;7731;50.720;6.912;2023-01-30T00:42:09;100413.34;;;2.94;100.00
17072;BME280;7731;50.720;6.912;2023-01-30T00:45:00;100418.50;;;2.88;100.00
17072;BME280;7731;50.720;6.912;2023-01-30T00:47:44;100427.94;;;2.78;100.00
17072;BME280;7731;50.720;6.912;2023-01-30T00:50:15;100419.19;;;2.98;100.00
17072;BME280;7731;50.720;6.912;2023-01-30T00:52:47;100419.44;;;2.79;100.00
17072;BME280;7731;50.720;6.912;2023-01-30T00:55:21;100416.06;;;2.80;100.00
17072;BME280;7731;50.720;6.912;2023-01-30T00:57:51;100421.66;;;3.02;100.00
17072;BME280;7731;50.720;6.912;2023-01-30T01:00:24;100405.63;;;3.02;100.00
17072;BME280;7731;50.720;6.912;2023-01-30T01:02:54;100401.50;;;2.93;100.00
17072;BME280;7731;50.720;6.912;2023-01-30T01:05:25;100408.38;;;2.86;100.00
17072;BME280;7731;50.720;6.912;2023-01-30T01:07:55;100394.63;;;3.01;100.00
17072;BME280;7731;50.720;6.912;2023-01-30T01:10:28;100398.81;;;3.04;100.00
17072;BME280;7731;50.720;6.912;2023-01-30T01:12:59;100387.97;;;2.94;100.00
17072;BME280;7731;50.720;6.912;2023-01-30T01:15:30;100374.34;;;3.00;100.00
17072;BME280;7731;50.720;6.912;2023-01-30T01:18:00;100371.78;;;3.01;100.00
17072;BME280;7731;50.720;6.912;2023-01-30T01:20:32;100368.25;;;3.10;100.00
17072;BME280;7731;50.720;6.912;2023-01-30T01:23:03;100376.69;;;3.14;100.00
17072;BME280;7731;50.720;6.912;2023-01-30T01:25:36;100380.06;;;3.14;100.00
17072;BME280;7731;50.720;6.912;2023-01-30T01:28:07;100388.59;;;3.07;100.00
17072;BME280;7731;50.720;6.912;2023-01-30T01:30:37;100394.28;;;3.26;100.00
17072;BME280;7731;50.720;6.912;2023-01-30T01:33:08;100385.91;;;3.21;100.00
17072;BME280;7731;50.720;6.912;2023-01-30T01:35:40;100387.41;;;3.31;100.00
17072;BME280;7731;50.720;6.912;2023-01-30T01:38:10;100379.72;;;3.36;100.00
17072;BME280;7731;50.720;6.912;2023-01-30T01:40:45;100380.88;;;3.18;100.00
17072;BME280;7731;50.720;6.912;2023-01-30T01:43:31;100374.69;;;3.33;100.00
17072;BME280;7731;50.720;6.912;2023-01-30T01:46:09;100372.31;;;3.22;100.00
17072;BME280;7731;50.720;6.912;2023-01-30T01:48:50;100367.03;;;3.34;100.00
17072;BME280;7731;50.720;6.912;2023-01-30T01:51:29;100380.88;;;3.18;100.00
17072;BME280;7731;50.720;6.912;2023-01-30T01:54:08;100382.41;;;3.27;100.00
17072;BME280;7731;50.720;6.912;2023-01-30T01:56:45;100390.16;;;3.17;100.00
17072;BME280;7731;50.720;6.912;2023-01-30T01:59:23;100382.63;;;3.13;100.00
17072;BME280;7731;50.720;6.912;2023-01-30T02:02:00;100382.53;;;3.19;100.00
17072;BME280;7731;50.720;6.912;2023-01-30T02:04:33;100388.38;;;3.26;100.00
17072;BME280;7731;50.720;6.912;2023-01-30T02:07:21;100390.94;;;3.24;100.00
17072;BME280;7731;50.720;6.912;2023-01-30T02:09:51;100375.00;;;3.13;100.00
17072;BME280;7731;50.720;6.912;2023-01-30T02:12:25;100364.75;;;3.19;100.00
17072;BME280;7731;50.720;6.912;2023-01-30T02:14:58;100368.19;;;3.16;100.00
17072;BME280;7731;50.720;6.912;2023-01-30T02:17:29;100364.75;;;3.19;100.00
17072;BME280;7731;50.720;6.912;2023-01-30T02:20:08;100363.50;;;3.45;100.00
17072;BME280;7731;50.720;6.912;2023-01-30T02:23:13;100370.41;;;3.36;100.00
17072;BME280;7731;50.720;6.912;2023-01-30T02:26:18;100350.97;;;3.34;100.00
17072;BME280;7731;50.720;6.912;2023-01-30T02:32:40;100328.00;;;3.42;100.00
17072;BME280;7731;50.720;6.912;2023-01-30T02:35:24;100320.81;;;3.65;100.00
17072;BME280;7731;50.720;6.912;2023-01-30T02:38:15;100306.66;;;3.53;100.00
17072;BME280;7731;50.720;6.912;2023-01-30T02:41:01;100300.38;;;3.71;100.00
17072;BME280;7731;50.720;6.912;2023-01-30T02:43:46;100289.50;;;3.65;100.00
17072;BME280;7731;50.720;6.912;2023-01-30T02:46:28;100287.38;;;3.87;100.00
17072;BME280;7731;50.720;6.912;2023-01-30T02:49:12;100280.66;;;3.84;100.00
17072;BME280;7731;50.720;6.912;2023-01-30T02:51:45;100291.59;;;3.88;100.00
17072;BME280;7731;50.720;6.912;2023-01-30T02:54:16;100281.50;;;3.85;100.00
17072;BME280;7731;50.720;6.912;2023-01-30T02:56:50;100283.06;;;3.92;100.00
17072;BME280;7731;50.720;6.912;2023-01-30T02:59:39;100279.69;;;3.90;100.00
17072;BME280;7731;50.720;6.912;2023-01-30T03:02:42;100287.00;;;4.05;100.00
17072;BME280;7731;50.720;6.912;2023-01-30T03:05:39;100287.16;;;3.98;100.00
17072;BME280;7731;50.720;6.912;2023-01-30T03:08:24;100277.59;;;4.10;100.00
17072;BME280;7731;50.720;6.912;2023-01-30T03:11:01;100280.16;;;4.10;100.00
17072;BME280;7731;50.720;6.912;2023-01-30T03:13:48;100271.97;;;3.94;100.00
17072;BME280;7731;50.720;6.912;2023-01-30T03:16:30;100284.72;;;3.93;100.00
17072;BME280;7731;50.720;6.912;2023-01-30T03:19:09;100272.81;;;3.95;100.00
17072;BME280;7731;50.720;6.912;2023-01-30T03:21:44;100255.75;;;4.00;100.00
17072;BME280;7731;50.720;6.912;2023-01-30T03:24:16;100241.81;;;4.20;100.00
17072;BME280;7731;50.720;6.912;2023-01-30T03:26:54;100243.44;;;4.24;100.00
17072;BME280;7731;50.720;6.912;2023-01-30T03:29:26;100236.78;;;4.17;100.00
17072;BME280;7731;50.720;6.912;2023-01-30T03:31:56;100236.66;;;4.23;100.00
17072;BME280;7731;50.720;6.912;2023-01-30T03:34:27;100227.22;;;4.28;100.00
17072;BME280;7731;50.720;6.912;2023-01-30T03:36:59;100221.41;;;4.23;100.00
17072;BME280;7731;50.720;6.912;2023-01-30T03:39:30;100219.84;;;4.16;100.00
17072;BME280;7731;50.720;6.912;2023-01-30T03:42:01;100220.63;;;4.18;100.00
17072;BME280;7731;50.720;6.912;2023-01-30T03:44:31;100217.03;;;4.28;100.00
17072;BME280;7731;50.720;6.912;2023-01-30T03:47:01;100201.78;;;4.28;100.00
17072;BME280;7731;50.720;6.912;2023-01-30T03:49:33;100211.09;;;4.29;100.00
17072;BME280;7731;50.720;6.912;2023-01-30T03:52:06;100199.44;;;4.19;100.00
17072;BME280;7731;50.720;6.912;2023-01-30T03:54:36;100204.47;;;4.22;100.00
17072;BME280;7731;50.720;6.912;2023-01-30T03:57:09;100204.28;;;4.29;100.00
17072;BME280;7731;50.720;6.912;2023-01-30T03:59:43;100208.66;;;4.24;100.00
17072;BME280;7731;50.720;6.912;2023-01-30T04:02:14;100206.59;;;4.40;100.00
17072;BME280;7731;50.720;6.912;2023-01-30T04:04:47;100196.50;;;4.36;100.00
17072;BME280;7731;50.720;6.912;2023-01-30T04:07:20;100195.50;;;4.43;100.00
17072;BME280;7731;50.720;6.912;2023-01-30T04:09:51;100184.28;;;4.52;100.00
17072;BME280;7731;50.720;6.912;2023-01-30T04:12:22;100174.59;;;4.32;100.00
17072;BME280;7731;50.720;6.912;2023-01-30T04:14:53;100180.63;;;4.26;100.00
17072;BME280;7731;50.720;6.912;2023-01-30T04:17:23;100179.63;;;4.33;100.00
17072;BME280;7731;50.720;6.912;2023-01-30T04:19:53;100176.88;;;4.42;100.00
17072;BME280;7731;50.720;6.912;2023-01-30T04:22:26;100172.16;;;4.27;100.00
17072;BME280;7731;50.720;6.912;2023-01-30T04:24:56;100155.81;;;4.36;100.00
17072;BME280;7731;50.720;6.912;2023-01-30T04:27:26;100157.25;;;4.47;100.00
17072;BME280;7731;50.720;6.912;2023-01-30T04:29:57;100171.00;;;4.39;100.00
17072;BME280;7731;50.720;6.912;2023-01-30T04:32:27;100169.47;;;4.33;100.00
17072;BME280;7731;50.720;6.912;2023-01-30T04:34:57;100168.28;;;4.46;100.00
17072;BME280;7731;50.720;6.912;2023-01-30T04:37:30;100164.31;;;4.36;100.00
17072;BME280;7731;50.720;6.912;2023-01-30T04:40:01;100161.06;;;4.29;100.00
17072;BME280;7731;50.720;6.912;2023-01-30T04:42:32;100165.34;;;4.27;100.00
17072;BME280;7731;50.720;6.912;2023-01-30T04:45:02;100162.88;;;4.24;100.00
17072;BME280;7731;50.720;6.912;2023-01-30T04:47:40;100167.38;;;4.11;100.00
17072;BME280;7731;50.720;6.912;2023-01-30T04:50:10;100163.69;;;4.25;100.00
17072;BME280;7731;50.720;6.912;2023-01-30T04:52:46;100153.47;;;4.28;100.00
17072;BME280;7731;50.720;6.912;2023-01-30T04:55:18;100156.00;;;4.28;100.00
17072;BME280;7731;50.720;6.912;2023-01-30T04:57:52;100152.50;;;4.34;100.00
17072;BME280;7731;50.720;6.912;2023-01-30T05:00:22;100159.41;;;4.28;100.00
17072;BME280;7731;50.720;6.912;2023-01-30T05:02:55;100168.56;;;4.34;100.00
17072;BME280;7731;50.720;6.912;2023-01-30T05:05:27;100171.53;;;4.16;100.00
17072;BME280;7731;50.720;6.912;2023-01-30T05:08:02;100168.56;;;4.34;100.00
17072;BME280;7731;50.720;6.912;2023-01-30T05:10:32;100154.47;;;4.22;100.00
17072;BME280;7731;50.720;6.912;2023-01-30T05:13:03;100148.59;;;4.19;100.00
17072;BME280;7731;50.720;6.912;2023-01-30T05:15:33;100147.63;;;4.24;100.00
17072;BME280;7731;50.720;6.912;2023-01-30T05:18:04;100150.78;;;4.34;100.00
17072;BME280;7731;50.720;6.912;2023-01-30T05:20:43;100148.44;;;4.25;100.00
17072;BME280;7731;50.720;6.912;2023-01-30T05:23:17;100143.59;;;4.14;100.00
17072;BME280;7731;50.720;6.912;2023-01-30T05:25:48;100146.88;;;4.19;100.00
17072;BME280;7731;50.720;6.912;2023-01-30T05:28:20;100139.88;;;4.29;100.00
17072;BME280;7731;50.720;6.912;2023-01-30T05:30:51;100138.81;;;4.39;100.00
17072;BME280;7731;50.720;6.912;2023-01-30T05:33:22;100132.44;;;4.21;100.00
17072;BME280;7731;50.720;6.912;2023-01-30T05:35:52;100140.09;;;4.20;100.00
17072;BME280;7731;50.720;6.912;2023-01-30T05:38:32;100137.41;;;4.26;100.00
17072;BME280;7731;50.720;6.912;2023-01-30T05:41:05;100129.84;;;4.23;100.00
17072;BME280;7731;50.720;6.912;2023-01-30T05:43:36;100128.03;;;4.28;100.00
17072;BME280;7731;50.720;6.912;2023-01-30T05:46:10;100128.88;;;4.28;100.00
17072;BME280;7731;50.720;6.912;2023-01-30T05:48:40;100134.94;;;4.23;100.00
17072;BME280;7731;50.720;6.912;2023-01-30T05:51:19;100133.03;;;4.31;100.00
17072;BME280;7731;50.720;6.912;2023-01-30T05:53:54;100136.66;;;4.21;100.00
17072;BME280;7731;50.720;6.912;2023-01-30T05:56:24;100137.56;;;4.20;100.00
17072;BME280;7731;50.720;6.912;2023-01-30T05:58:57;100136.47;;;4.30;100.00
17072;BME280;7731;50.720;6.912;2023-01-30T06:01:29;100127.88;;;4.34;100.00
17072;BME280;7731;50.720;6.912;2023-01-30T06:03:59;100137.44;;;4.24;100.00
17072;BME280;7731;50.720;6.912;2023-01-30T06:06:30;100130.59;;;4.26;100.00
17072;BME280;7731;50.720;6.912;2023-01-30T06:09:03;100129.56;;;4.35;100.00
17072;BME280;7731;50.720;6.912;2023-01-30T06:11:34;100126.38;;;4.27;100.00
17072;BME280;7731;50.720;6.912;2023-01-30T06:14:05;100136.88;;;4.11;100.00
17072;BME280;7731;50.720;6.912;2023-01-30T06:16:35;100143.44;;;4.22;100.00
17072;BME280;7731;50.720;6.912;2023-01-30T06:19:07;100137.97;;;4.37;100.00
17072;BME280;7731;50.720;6.912;2023-01-30T06:21:37;100139.28;;;4.54;100.00
17072;BME280;7731;50.720;6.912;2023-01-30T06:24:09;100136.97;;;4.44;100.00
17072;BME280;7731;50.720;6.912;2023-01-30T06:26:40;100144.44;;;4.51;100.00
17072;BME280;7731;50.720;6.912;2023-01-30T06:29:10;100145.19;;;4.54;100.00
17072;BME280;7731;50.720;6.912;2023-01-30T06:31:40;100145.19;;;4.54;100.00
17072;BME280;7731;50.720;6.912;2023-01-30T06:34:13;100145.50;;;4.42;100.00
17072;BME280;7731;50.720;6.912;2023-01-30T06:36:47;100143.78;;;4.44;100.00
17072;BME280;7731;50.720;6.912;2023-01-30T06:39:19;100160.41;;;4.57;100.00
17072;BME280;7731;50.720;6.912;2023-01-30T06:41:52;100166.50;;;4.52;100.00
17072;BME280;7731;50.720;6.912;2023-01-30T06:44:22;100172.84;;;4.68;100.00
17072;BME280;7731;50.720;6.912;2023-01-30T06:46:55;100153.50;;;4.62;100.00
17072;BME280;7731;50.720;6.912;2023-01-30T06:49:26;100161.88;;;4.66;100.00
17072;BME280;7731;50.720;6.912;2023-01-30T06:51:56;100164.41;;;4.68;100.00
17072;BME280;7731;50.720;6.912;2023-01-30T06:54:30;100156.66;;;4.72;100.00
17072;BME280;7731;50.720;6.912;2023-01-30T06:57:00;100162.69;;;4.68;100.00
17072;BME280;7731;50.720;6.912;2023-01-30T06:59:30;100160.25;;;4.63;100.00
17072;BME280;7731;50.720;6.912;2023-01-30T07:02:00;100167.06;;;4.63;100.00
17072;BME280;7731;50.720;6.912;2023-01-30T07:04:31;100156.41;;;4.81;100.00
17072;BME280;7731;50.720;6.912;2023-01-30T07:07:01;100164.06;;;4.81;100.00
17072;BME280;7731;50.720;6.912;2023-01-30T07:09:40;100175.38;;;4.70;100.00
17072;BME280;7731;50.720;6.912;2023-01-30T07:12:11;100171.22;;;4.67;100.00
17072;BME280;7731;50.720;6.912;2023-01-30T07:14:46;100172.03;;;4.68;100.00
17072;BME280;7731;50.720;6.912;2023-01-30T07:17:21;100184.03;;;4.62;100.00
17072;BME280;7731;50.720;6.912;2023-01-30T07:19:51;100183.19;;;4.62;100.00
17072;BME280;7731;50.720;6.912;2023-01-30T07:22:22;100158.72;;;4.58;100.00
17072;BME280;7731;50.720;6.912;2023-01-30T07:24:56;100181.38;;;4.67;100.00
17072;BME280;7731;50.720;6.912;2023-01-30T07:27:26;100186.31;;;4.73;100.00
17072;BME280;7731;50.720;6.912;2023-01-30T07:29:56;100186.09;;;4.82;100.00
17072;BME280;7731;50.720;6.912;2023-01-30T07:32:28;100190.13;;;4.90;100.00
17072;BME280;7731;50.720;6.912;2023-01-30T07:34:58;100180.09;;;4.83;100.00
17072;BME280;7731;50.720;6.912;2023-01-30T07:37:31;100175.44;;;4.67;100.00
17072;BME280;7731;50.720;6.912;2023-01-30T07:40:10;100162.91;;;4.59;100.00
17072;BME280;7731;50.720;6.912;2023-01-30T07:42:41;100158.59;;;4.62;100.00
17072;BME280;7731;50.720;6.912;2023-01-30T07:45:12;100165.16;;;4.71;100.00
17072;BME280;7731;50.720;6.912;2023-01-30T07:47:43;100169.94;;;4.83;100.00
17072;BME280;7731;50.720;6.912;2023-01-30T07:50:16;100167.47;;;4.80;100.00
17072;BME280;7731;50.720;6.912;2023-01-30T07:52:47;100164.78;;;4.85;100.00
17072;BME280;7731;50.720;6.912;2023-01-30T07:55:21;100177.34;;;4.93;100.00
17072;BME280;7731;50.720;6.912;2023-01-30T07:57:51;100185.47;;;5.07;100.00
17072;BME280;7731;50.720;6.912;2023-01-30T08:00:22;100192.91;;;4.80;100.00
17072;BME280;7731;50.720;6.912;2023-01-30T08:02:52;100197.78;;;4.90;100.00
17072;BME280;7731;50.720;6.912;2023-01-30T08:05:23;100185.78;;;4.95;100.00
17072;BME280;7731;50.720;6.912;2023-01-30T08:07:55;100199.31;;;4.97;100.00
17072;BME280;7731;50.720;6.912;2023-01-30T08:10:30;100211.22;;;4.96;100.00
17072;BME280;7731;50.720;6.912;2023-01-30T08:13:02;100211.94;;;5.00;100.00
17072;BME280;7731;50.720;6.912;2023-01-30T08:15:32;100206.94;;;4.97;100.00
17072;BME280;7731;50.720;6.912;2023-01-30T08:18:05;100229.13;;;4.92;100.00
17072;BME280;7731;50.720;6.912;2023-01-30T08:20:36;100225.00;;;4.88;100.00
17072;BME280;7731;50.720;6.912;2023-01-30T08:23:09;100221.28;;;5.01;100.00
17072;BME280;7731;50.720;6.912;2023-01-30T08:25:42;100214.72;;;4.91;100.00
17072;BME280;7731;50.720;6.912;2023-01-30T08:28:12;100202.94;;;4.87;100.00
17072;BME280;7731;50.720;6.912;2023-01-30T08:30:45;100206.97;;;4.95;100.00
17072;BME280;7731;50.720;6.912;2023-01-30T08:33:15;100193.06;;;5.40;100.00
17072;BME280;7731;50.720;6.912;2023-01-30T08:35:47;100202.28;;;5.46;100.00
17072;BME280;7731;50.720;6.912;2023-01-30T08:38:18;100193.69;;;5.50;100.00
17072;BME280;7731;50.720;6.912;2023-01-30T08:40:58;100187.22;;;5.68;100.00
17072;BME280;7731;50.720;6.912;2023-01-30T08:43:29;100188.13;;;5.67;100.00
17072;BME280;7731;50.720;6.912;2023-01-30T08:45:59;100202.88;;;6.15;100.00
17072;BME280;7731;50.720;6.912;2023-01-30T08:48:31;100206.91;;;6.77;100.00
17072;BME280;7731;50.720;6.912;2023-01-30T08:51:16;100202.16;;;6.38;100.00
17072;BME280;7731;50.720;6.912;2023-01-30T08:53:47;100217.53;;;6.08;100.00
17072;BME280;7731;50.720;6.912;2023-01-30T08:56:20;100219.38;;;6.03;100.00
17072;BME280;7731;50.720;6.912;2023-01-30T08:58:50;100223.00;;;5.95;100.00
17072;BME280;7731;50.720;6.912;2023-01-30T09:01:22;100221.88;;;6.05;100.00
17072;BME280;7731;50.720;6.912;2023-01-30T09:03:52;100214.78;;;5.85;100.00
17072;BME280;7731;50.720;6.912;2023-01-30T09:06:22;100213.13;;;6.69;100.00
17072;BME280;7731;50.720;6.912;2023-01-30T09:08:52;100222.00;;;7.83;100.00
17072;BME280;7731;50.720;6.912;2023-01-30T09:11:25;100226.44;;;8.69;100.00
17072;BME280;7731;50.720;6.912;2023-01-30T09:13:55;100230.88;;;8.86;100.00
17072;BME280;7731;50.720;6.912;2023-01-30T09:16:26;100224.38;;;9.60;93.80
17072;BME280;7731;50.720;6.912;2023-01-30T09:18:56;100217.72;;;11.19;83.20
17072;BME280;7731;50.720;6.912;2023-01-30T09:21:26;100207.53;;;10.48;89.44
17072;BME280;7731;50.720;6.912;2023-01-30T09:23:58;100219.09;;;11.60;76.96
17072;BME280;7731;50.720;6.912;2023-01-30T09:26:31;100212.50;;;11.21;84.08
17072;BME280;7731;50.720;6.912;2023-01-30T09:29:02;100204.72;;;10.35;85.88
17072;BME280;7731;50.720;6.912;2023-01-30T09:31:32;100229.63;;;9.95;90.02
17072;BME280;7731;50.720;6.912;2023-01-30T09:34:04;100225.91;;;11.10;80.22
17072;BME280;7731;50.720;6.912;2023-01-30T09:36:34;100238.78;;;10.19;89.14
17072;BME280;7731;50.720;6.912;2023-01-30T09:39:06;100238.44;;;9.30;93.91
17072;BME280;7731;50.720;6.912;2023-01-30T09:42:13;100237.34;;;9.36;93.87
17072;BME280;7731;50.720;6.912;2023-01-30T09:45:15;100241.06;;;9.29;95.71
17072;BME280;7731;50.720;6.912;2023-01-30T09:48:04;100244.38;;;9.52;89.42
17072;BME280;7731;50.720;6.912;2023-01-30T09:51:14;100237.25;;;11.23;81.85
17072;BME280;7731;50.720;6.912;2023-01-30T09:54:06;100229.91;;;10.27;84.18
17072;BME280;7731;50.720;6.912;2023-01-30T09:56:41;100235.66;;;10.68;78.28
17072;BME280;7731;50.720;6.912;2023-01-30T09:59:20;100226.16;;;12.06;77.35
17072;BME280;7731;50.720;6.912;2023-01-30T10:02:00;100218.41;;;11.56;75.29
17072;BME280;7731;50.720;6.912;2023-01-30T10:04:40;100230.75;;;11.83;75.89
17072;BME280;7731;50.720;6.912;2023-01-30T10:07:42;100230.13;;;11.95;73.33
17072;BME280;7731;50.720;6.912;2023-01-30T10:10:30;100234.22;;;11.66;74.88
17072;BME280;7731;50.720;6.912;2023-01-30T10:13:12;100225.25;;;10.71;81.80
17072;BME280;7731;50.720;6.912;2023-01-30T10:16:00;100227.47;;;10.97;77.54
17072;BME280;7731;50.720;6.912;2023-01-30T10:18:58;100223.31;;;10.40;80.73
17072;BME280;7731;50.720;6.912;2023-01-30T10:21:43;100233.72;;;10.91;79.77
17072;BME280;7731;50.720;6.912;2023-01-30T10:24:42;100240.66;;;9.38;82.54
17072;BME280;7731;50.720;6.912;2023-01-30T10:27:17;100234.06;;;10.48;77.53
17072;BME280;7731;50.720;6.912;2023-01-30T10:29:55;100232.44;;;10.82;76.70
17072;BME280;7731;50.720;6.912;2023-01-30T10:32:37;100240.44;;;10.40;74.34
17072;BME280;7731;50.720;6.912;2023-01-30T10:35:18;100244.91;;;10.36;76.32
17072;BME280;7731;50.720;6.912;2023-01-30T10:38:04;100247.03;;;10.82;74.77
17072;BME280;7731;50.720;6.912;2023-01-30T10:40:40;100250.09;;;10.53;77.74
17072;BME280;7731;50.720;6.912;2023-01-30T10:43:21;100263.88;;;9.75;79.50
17072;BME280;7731;50.720;6.912;2023-01-30T10:46:04;100275.91;;;8.92;83.99
17072;BME280;7731;50.720;6.912;2023-01-30T10:48:57;100256.47;;;8.44;87.56
17072;BME280;7731;50.720;6.912;2023-01-30T10:51:42;100257.81;;;7.83;93.57
17072;BME280;7731;50.720;6.912;2023-01-30T10:54:23;100247.03;;;7.75;95.83
17072;BME280;7731;50.720;6.912;2023-01-30T10:57:13;100245.16;;;8.03;92.09
17072;BME280;7731;50.720;6.912;2023-01-30T10:59:58;100263.94;;;8.70;83.56
17072;BME280;7731;50.720;6.912;2023-01-30T11:02:43;100258.63;;;7.60;92.36
17072;BME280;7731;50.720;6.912;2023-01-30T11:05:25;100276.59;;;7.58;95.69
17072;BME280;7731;50.720;6.912;2023-01-30T11:07:57;100259.38;;;7.38;97.94
17072;BME280;7731;50.720;6.912;2023-01-30T11:10:27;100262.81;;;7.12;98.64
17072;BME280;7731;50.720;6.912;2023-01-30T11:13:09;100272.72;;;7.21;94.65
17072;BME280;7731;50.720;6.912;2023-01-30T11:15:45;100264.56;;;7.85;87.04
17072;BME280;7731;50.720;6.912;2023-01-30T11:18:18;100271.59;;;7.55;87.36
17072;BME280;7731;50.720;6.912;2023-01-30T11:21:22;100279.50;;;7.47;92.45
17072;BME280;7731;50.720;6.912;2023-01-30T11:24:17;100276.38;;;7.14;96.82
17072;BME280;7731;50.720;6.912;2023-01-30T11:26:50;100271.25;;;7.14;95.89
17072;BME280;7731;50.720;6.912;2023-01-30T11:29:38;100277.22;;;6.88;95.25
17072;BME280;7731;50.720;6.912;2023-01-30T11:32:18;100273.63;;;6.93;95.82
17072;BME280;7731;50.720;6.912;2023-01-30T11:35:17;100274.31;;;6.98;96.26
17072;BME280;7731;50.720;6.912;2023-01-30T11:37:52;100276.28;;;6.90;95.50
17072;BME280;7731;50.720;6.912;2023-01-30T11:40:27;100275.03;;;7.04;95.73
17072;BME280;7731;50.720;6.912;2023-01-30T11:43:02;100264.91;;;7.01;94.93
17072;BME280;7731;50.720;6.912;2023-01-30T11:45:38;100278.34;;;6.79;96.90
17072;BME280;7731;50.720;6.912;2023-01-30T11:48:18;100263.81;;;6.81;96.47
17072;BME280;7731;50.720;6.912;2023-01-30T11:51:10;100264.69;;;6.80;98.32
17072;BME280;7731;50.720;6.912;2023-01-30T11:53:52;100258.66;;;6.83;99.51
17072;BME280;7731;50.720;6.912;2023-01-30T11:56:34;100265.41;;;6.85;100.00
17072;BME280;7731;50.720;6.912;2023-01-30T11:59:20;100267.25;;;6.80;100.00
17072;BME280;7731;50.720;6.912;2023-01-30T12:02:03;100268.81;;;7.11;99.93
17072;BME280;7731;50.720;6.912;2023-01-30T12:04:35;100261.53;;;6.98;97.83
17072;BME280;7731;50.720;6.912;2023-01-30T12:07:17;100268.50;;;7.20;99.50
17072;BME280;7731;50.720;6.912;2023-01-30T12:09:54;100270.31;;;6.91;100.00
17072;BME280;7731;50.720;6.912;2023-01-30T12:12:32;100264.59;;;7.10;98.61
17072;BME280;7731;50.720;6.912;2023-01-30T12:15:21;100254.38;;;7.10;99.15
17072;BME280;7731;50.720;6.912;2023-01-30T12:18:04;100263.03;;;7.06;96.35
17072;BME280;7731;50.720;6.912;2023-01-30T12:20:48;100259.47;;;7.35;94.68
17072;BME280;7731;50.720;6.912;2023-01-30T12:23:35;100257.72;;;7.12;96.08
17072;BME280;7731;50.720;6.912;2023-01-30T12:26:15;100256.78;;;7.14;95.20
17072;BME280;7731;50.720;6.912;2023-01-30T12:29:00;100263.22;;;7.00;98.89
17072;BME280;7731;50.720;6.912;2023-01-30T12:31:37;100273.00;;;6.87;100.00
17072;BME280;7731;50.720;6.912;2023-01-30T12:34:09;100272.84;;;6.65;100.00
17072;BME280;7731;50.720;6.912;2023-01-30T12:36:46;100280.91;;;6.51;100.00
17072;BME280;7731;50.720;6.912;2023-01-30T12:39:40;100266.63;;;6.45;100.00
17072;BME280;7731;50.720;6.912;2023-01-30T12:42:47;100270.28;;;6.36;100.00
17072;BME280;7731;50.720;6.912;2023-01-30T12:45:25;100287.41;;;6.33;100.00
17072;BME280;7731;50.720;6.912;2023-01-30T12:48:27;100287.94;;;6.14;100.00
17072;BME280;7731;50.720;6.912;2023-01-30T12:51:35;100292.03;;;5.88;100.00
17072;BME280;7731;50.720;6.912;2023-01-30T12:54:26;100293.50;;;5.96;100.00
17072;BME280;7731;50.720;6.912;2023-01-30T12:57:17;100294.38;;;5.96;100.00
17072;BME280;7731;50.720;6.912;2023-01-30T13:00:08;100294.66;;;5.85;100.00
17072;BME280;7731;50.720;6.912;2023-01-30T13:03:04;100297.78;;;5.97;100.00
17072;BME280;7731;50.720;6.912;2023-01-30T13:05:48;100299.72;;;6.18;100.00
17072;BME280;7731;50.720;6.912;2023-01-30T13:08:40;100308.75;;;5.99;100.00
17072;BME280;7731;50.720;6.912;2023-01-30T13:11:33;100305.44;;;5.95;100.00
17072;BME280;7731;50.720;6.912;2023-01-30T13:14:18;100319.31;;;6.18;100.00
17072;BME280;7731;50.720;6.912;2023-01-30T13:17:09;100317.06;;;6.07;100.00
17072;BME280;7731;50.720;6.912;2023-01-30T13:19:51;100323.72;;;6.11;100.00
17072;BME280;7731;50.720;6.912;2023-01-30T13:22:34;100319.97;;;6.24;100.00
17072;BME280;7731;50.720;6.912;2023-01-30T13:25:23;100318.72;;;6.08;100.00
17072;BME280;7731;50.720;6.912;2023-01-30T13:28:06;100320.22;;;6.15;100.00
17072;BME280;7731;50.720;6.912;2023-01-30T13:30:40;100319.41;;;6.15;100.00
17072;BME280;7731;50.720;6.912;2023-01-30T13:33:21;100320.66;;;6.59;100.00
17072;BME280;7731;50.720;6.912;2023-01-30T13:36:04;100334.91;;;6.37;100.00
17072;BME280;7731;50.720;6.912;2023-01-30T13:38:46;100337.91;;;6.21;100.00
17072;BME280;7731;50.720;6.912;2023-01-30T13:41:22;100342.78;;;6.29;100.00
17072;BME280;7731;50.720;6.912;2023-01-30T13:43:53;100351.63;;;6.47;100.00
17072;BME280;7731;50.720;6.912;2023-01-30T13:46:27;100350.28;;;6.35;100.00
17072;BME280;7731;50.720;6.912;2023-01-30T13:49:10;100362.38;;;6.29;100.00
17072;BME280;7731;50.720;6.912;2023-01-30T13:51:47;100364.19;;;6.23;100.00
17072;BME280;7731;50.720;6.912;2023-01-30T13:54:35;100352.34;;;6.22;100.00
17072;BME280;7731;50.720;6.912;2023-01-30T13:57:23;100364.13;;;6.26;100.00